Meath Environmental Platform

Observations for Trim Market St

Time AQI Temp °C Hum % Pres Pa CO μg/m³ H₂S μg/m³ NO μg/m³ NO₂ μg/m³ O₃ μg/m³ SO₂ μg/m³ PM1 μg/m³ PM2.5 μg/m³ PM10 μg/m³
Tuesday 11 August 2026
13:29 2 38.2 21 66,867 0 13.68 0.09 18.15 75.56 4.54 0.71 4.26 4.68
13:28 2 38.1 21 66,839 0 17.48 0.15 17.42 92.97 4.91 0.71 4.26 4.68
13:26 2 38.2 20 66,841 0 17.72 0.2 19.13 106.44 4.87 0 3.72 4.09
13:25 2 38.3 20 66,869 0 6.13 0.23 15.45 97.73 5.26 0 3.17 3.49
13:24 2 38.5 20 66,874 0 0 0.25 14.9 105.71 5.04 0 3.73 4.11
13:23 2 38.7 20 66,908 0 0 0.26 14.91 75.83 5.2 0 4.3 4.74
13:22 2 38.9 20 66,916 0 8.96 0.23 18.01 72.69 4.55 0 3.75 4.13
13:20 2 39.3 20 66,912 0 0 0.12 14.79 73.96 5.01 0.71 3.76 4.13
13:19 2 39.5 20 66,947 0 0 0.1 14.71 91.05 4.63 0 3.2 3.52
13:14 2 39.4 20 66,943 0 0.05 0.14 17.14 82.53 3.95 0 3.75 4.13
13:11 2 39.2 20 66,935 0 0 0.18 15.64 90.19 4.59 0.71 4.32 4.75
13:09 2 39.2 19 66,939 0 0 0.19 14.98 79.38 5.23 0 3.77 4.15
13:06 2 39.4 19 66,967 0 1.17 0.12 19.74 76.45 4.01 0.71 4.35 4.78
12:59 2 40 19 67,023 0 7.01 0.07 22.82 72.43 3.78 0 3.23 3.55
12:58 2 39.9 19 66,990 0 0 0.08 14.8 89.55 4.33 0 3.78 4.16
12:57 2 39.8 19 66,975 0 3.15 0.07 16.52 114.54 3.76 0 3.23 3.55
12:56 2 39.7 19 66,957 0 0 0.09 14.86 97.02 4.25 0 3.78 4.16
12:55 2 39.6 19 66,967 0 10.02 0.1 25.36 95.73 2.82 0 3.22 3.55
12:54 2 39.5 19 66,953 0 2.7 0.14 33.64 68.71 1.99 1.43 4.91 5.4
12:53 2 39.3 19 66,965 0 0 0.17 15.46 94.55 3.54 0 3.23 3.55